sensor_id;sensor_type;location;lat;lon;timestamp;P1;durP1;ratioP1;P2;durP2;ratioP2
50769;SDS011;36740;48.698;11.472;2023-02-28T00:02:41;4.50;;;3.47;;
50769;SDS011;36740;48.698;11.472;2023-02-28T00:05:27;6.20;;;3.90;;
50769;SDS011;36740;48.698;11.472;2023-02-28T00:08:13;8.25;;;4.55;;
50769;SDS011;36740;48.698;11.472;2023-02-28T00:11:03;4.43;;;3.33;;
50769;SDS011;36740;48.698;11.472;2023-02-28T00:13:49;6.80;;;4.50;;
50769;SDS011;36740;48.698;11.472;2023-02-28T00:16:34;6.60;;;3.72;;
50769;SDS011;36740;48.698;11.472;2023-02-28T00:19:20;6.45;;;3.03;;
50769;SDS011;36740;48.698;11.472;2023-02-28T00:22:06;7.18;;;4.50;;
50769;SDS011;36740;48.698;11.472;2023-02-28T00:24:51;6.40;;;4.80;;
50769;SDS011;36740;48.698;11.472;2023-02-28T00:27:37;5.85;;;4.03;;
50769;SDS011;36740;48.698;11.472;2023-02-28T00:30:23;6.45;;;3.58;;
50769;SDS011;36740;48.698;11.472;2023-02-28T00:33:11;4.28;;;2.97;;
50769;SDS011;36740;48.698;11.472;2023-02-28T00:36:07;5.63;;;2.95;;
50769;SDS011;36740;48.698;11.472;2023-02-28T00:38:53;6.00;;;3.65;;
50769;SDS011;36740;48.698;11.472;2023-02-28T00:41:39;6.00;;;4.10;;
50769;SDS011;36740;48.698;11.472;2023-02-28T00:44:24;6.30;;;4.22;;
50769;SDS011;36740;48.698;11.472;2023-02-28T00:47:10;10.27;;;5.22;;
50769;SDS011;36740;48.698;11.472;2023-02-28T00:49:55;9.55;;;4.90;;
50769;SDS011;36740;48.698;11.472;2023-02-28T00:52:41;3.97;;;3.03;;
50769;SDS011;36740;48.698;11.472;2023-02-28T00:55:27;7.15;;;5.35;;
50769;SDS011;36740;48.698;11.472;2023-02-28T00:58:12;4.88;;;2.97;;
50769;SDS011;36740;48.698;11.472;2023-02-28T01:00:58;3.40;;;2.67;;
50769;SDS011;36740;48.698;11.472;2023-02-28T01:03:43;7.80;;;3.10;;
50769;SDS011;36740;48.698;11.472;2023-02-28T01:06:29;7.80;;;4.32;;
50769;SDS011;36740;48.698;11.472;2023-02-28T01:09:14;8.35;;;3.60;;
50769;SDS011;36740;48.698;11.472;2023-02-28T01:12:00;6.03;;;3.63;;
50769;SDS011;36740;48.698;11.472;2023-02-28T01:14:46;6.50;;;4.10;;
50769;SDS011;36740;48.698;11.472;2023-02-28T01:17:31;6.03;;;3.55;;
50769;SDS011;36740;48.698;11.472;2023-02-28T01:20:17;8.70;;;4.82;;
50769;SDS011;36740;48.698;11.472;2023-02-28T01:23:03;4.78;;;3.50;;
50769;SDS011;36740;48.698;11.472;2023-02-28T01:25:49;9.15;;;4.97;;
50769;SDS011;36740;48.698;11.472;2023-02-28T01:28:35;5.45;;;2.63;;
50769;SDS011;36740;48.698;11.472;2023-02-28T01:31:21;4.32;;;3.55;;
50769;SDS011;36740;48.698;11.472;2023-02-28T01:34:07;6.70;;;4.63;;
50769;SDS011;36740;48.698;11.472;2023-02-28T01:36:52;5.13;;;3.50;;
50769;SDS011;36740;48.698;11.472;2023-02-28T01:39:38;4.50;;;3.47;;
50769;SDS011;36740;48.698;11.472;2023-02-28T01:42:24;7.53;;;3.65;;
50769;SDS011;36740;48.698;11.472;2023-02-28T01:45:21;6.18;;;4.70;;
50769;SDS011;36740;48.698;11.472;2023-02-28T01:48:07;5.93;;;3.63;;
50769;SDS011;36740;48.698;11.472;2023-02-28T01:50:54;6.53;;;4.45;;
50769;SDS011;36740;48.698;11.472;2023-02-28T01:53:44;6.75;;;3.85;;
50769;SDS011;36740;48.698;11.472;2023-02-28T01:56:33;7.00;;;3.55;;
50769;SDS011;36740;48.698;11.472;2023-02-28T01:59:23;10.10;;;5.63;;
50769;SDS011;36740;48.698;11.472;2023-02-28T02:05:06;7.00;;;4.85;;
50769;SDS011;36740;48.698;11.472;2023-02-28T02:07:54;7.07;;;4.45;;
50769;SDS011;36740;48.698;11.472;2023-02-28T02:10:41;7.72;;;5.07;;
50769;SDS011;36740;48.698;11.472;2023-02-28T02:25:31;8.15;;;4.97;;
50769;SDS011;36740;48.698;11.472;2023-02-28T02:39:47;11.32;;;5.63;;
50769;SDS011;36740;48.698;11.472;2023-02-28T02:45:26;10.05;;;4.95;;
50769;SDS011;36740;48.698;11.472;2023-02-28T02:48:16;8.93;;;5.72;;
50769;SDS011;36740;48.698;11.472;2023-02-28T02:51:04;8.50;;;5.82;;
50769;SDS011;36740;48.698;11.472;2023-02-28T02:53:52;6.30;;;5.03;;
50769;SDS011;36740;48.698;11.472;2023-02-28T02:56:39;10.15;;;4.15;;
50769;SDS011;36740;48.698;11.472;2023-02-28T02:59:27;7.38;;;4.00;;
50769;SDS011;36740;48.698;11.472;2023-02-28T03:02:14;6.68;;;4.60;;
50769;SDS011;36740;48.698;11.472;2023-02-28T03:05:04;8.10;;;6.00;;
50769;SDS011;36740;48.698;11.472;2023-02-28T03:07:51;9.90;;;5.93;;
50769;SDS011;36740;48.698;11.472;2023-02-28T03:10:38;6.47;;;4.35;;
50769;SDS011;36740;48.698;11.472;2023-02-28T03:20:24;8.73;;;5.88;;
50769;SDS011;36740;48.698;11.472;2023-02-28T03:28:31;8.98;;;6.00;;
50769;SDS011;36740;48.698;11.472;2023-02-28T03:31:34;10.63;;;5.57;;
50769;SDS011;36740;48.698;11.472;2023-02-28T03:34:34;9.30;;;4.88;;
50769;SDS011;36740;48.698;11.472;2023-02-28T03:40:14;13.35;;;4.85;;
50769;SDS011;36740;48.698;11.472;2023-02-28T03:43:02;8.38;;;5.22;;
50769;SDS011;36740;48.698;11.472;2023-02-28T03:45:48;6.38;;;4.78;;
50769;SDS011;36740;48.698;11.472;2023-02-28T03:48:40;9.38;;;5.13;;
50769;SDS011;36740;48.698;11.472;2023-02-28T03:51:26;5.32;;;4.20;;
50769;SDS011;36740;48.698;11.472;2023-02-28T03:54:15;9.18;;;5.75;;
50769;SDS011;36740;48.698;11.472;2023-02-28T03:57:15;8.40;;;5.43;;
50769;SDS011;36740;48.698;11.472;2023-02-28T04:00:04;11.73;;;7.40;;
50769;SDS011;36740;48.698;11.472;2023-02-28T04:02:51;6.03;;;4.50;;
50769;SDS011;36740;48.698;11.472;2023-02-28T04:05:48;11.35;;;5.95;;
50769;SDS011;36740;48.698;11.472;2023-02-28T04:08:35;7.18;;;5.22;;
50769;SDS011;36740;48.698;11.472;2023-02-28T04:11:22;8.57;;;4.57;;
50769;SDS011;36740;48.698;11.472;2023-02-28T04:14:08;24.17;;;4.55;;
50769;SDS011;36740;48.698;11.472;2023-02-28T04:16:54;8.60;;;6.22;;
50769;SDS011;36740;48.698;11.472;2023-02-28T04:19:39;11.73;;;7.25;;
50769;SDS011;36740;48.698;11.472;2023-02-28T04:22:25;11.77;;;5.85;;
50769;SDS011;36740;48.698;11.472;2023-02-28T04:25:14;7.18;;;5.63;;
50769;SDS011;36740;48.698;11.472;2023-02-28T04:27:59;6.90;;;4.07;;
50769;SDS011;36740;48.698;11.472;2023-02-28T04:30:45;11.65;;;6.38;;
50769;SDS011;36740;48.698;11.472;2023-02-28T04:33:31;8.32;;;6.25;;
50769;SDS011;36740;48.698;11.472;2023-02-28T04:36:17;8.93;;;5.40;;
50769;SDS011;36740;48.698;11.472;2023-02-28T04:39:03;9.07;;;5.72;;
50769;SDS011;36740;48.698;11.472;2023-02-28T04:41:49;11.77;;;6.72;;
50769;SDS011;36740;48.698;11.472;2023-02-28T04:44:35;7.10;;;5.65;;
50769;SDS011;36740;48.698;11.472;2023-02-28T04:47:20;8.00;;;6.43;;
50769;SDS011;36740;48.698;11.472;2023-02-28T04:50:06;7.55;;;4.82;;
50769;SDS011;36740;48.698;11.472;2023-02-28T04:52:52;19.58;;;7.72;;
50769;SDS011;36740;48.698;11.472;2023-02-28T04:55:37;15.95;;;6.50;;
50769;SDS011;36740;48.698;11.472;2023-02-28T04:58:25;12.20;;;6.18;;
50769;SDS011;36740;48.698;11.472;2023-02-28T05:01:21;7.85;;;5.80;;
50769;SDS011;36740;48.698;11.472;2023-02-28T05:04:08;8.30;;;5.18;;
50769;SDS011;36740;48.698;11.472;2023-02-28T05:06:54;10.70;;;6.22;;
50769;SDS011;36740;48.698;11.472;2023-02-28T05:09:40;8.82;;;6.40;;
50769;SDS011;36740;48.698;11.472;2023-02-28T05:12:26;10.02;;;6.15;;
50769;SDS011;36740;48.698;11.472;2023-02-28T05:15:12;9.65;;;6.43;;
50769;SDS011;36740;48.698;11.472;2023-02-28T05:17:58;10.57;;;7.80;;
50769;SDS011;36740;48.698;11.472;2023-02-28T05:20:44;12.82;;;6.80;;
50769;SDS011;36740;48.698;11.472;2023-02-28T05:23:29;8.68;;;5.80;;
50769;SDS011;36740;48.698;11.472;2023-02-28T05:26:15;7.63;;;5.68;;
50769;SDS011;36740;48.698;11.472;2023-02-28T05:29:00;8.57;;;5.55;;
50769;SDS011;36740;48.698;11.472;2023-02-28T05:31:46;11.20;;;6.60;;
50769;SDS011;36740;48.698;11.472;2023-02-28T05:34:32;8.27;;;5.97;;
50769;SDS011;36740;48.698;11.472;2023-02-28T05:37:17;9.45;;;6.03;;
50769;SDS011;36740;48.698;11.472;2023-02-28T05:40:03;9.23;;;6.35;;
50769;SDS011;36740;48.698;11.472;2023-02-28T05:42:55;10.30;;;5.75;;
50769;SDS011;36740;48.698;11.472;2023-02-28T05:45:41;7.88;;;6.70;;
50769;SDS011;36740;48.698;11.472;2023-02-28T05:48:26;13.35;;;6.75;;
50769;SDS011;36740;48.698;11.472;2023-02-28T05:51:12;9.88;;;6.90;;
50769;SDS011;36740;48.698;11.472;2023-02-28T05:54:00;9.15;;;5.95;;
50769;SDS011;36740;48.698;11.472;2023-02-28T05:56:46;11.73;;;7.65;;
50769;SDS011;36740;48.698;11.472;2023-02-28T05:59:32;11.02;;;5.65;;
50769;SDS011;36740;48.698;11.472;2023-02-28T06:02:17;9.57;;;6.85;;
50769;SDS011;36740;48.698;11.472;2023-02-28T06:05:03;11.15;;;7.55;;
50769;SDS011;36740;48.698;11.472;2023-02-28T06:07:49;10.32;;;6.60;;
50769;SDS011;36740;48.698;11.472;2023-02-28T06:10:35;9.25;;;7.28;;
50769;SDS011;36740;48.698;11.472;2023-02-28T06:13:20;13.05;;;7.03;;
50769;SDS011;36740;48.698;11.472;2023-02-28T06:16:06;11.93;;;7.20;;
50769;SDS011;36740;48.698;11.472;2023-02-28T06:18:52;12.65;;;6.97;;
50769;SDS011;36740;48.698;11.472;2023-02-28T06:21:40;12.75;;;8.88;;
50769;SDS011;36740;48.698;11.472;2023-02-28T06:24:26;9.93;;;7.13;;
50769;SDS011;36740;48.698;11.472;2023-02-28T06:27:13;10.95;;;6.60;;
50769;SDS011;36740;48.698;11.472;2023-02-28T06:29:58;11.85;;;7.18;;
50769;SDS011;36740;48.698;11.472;2023-02-28T06:32:44;12.63;;;7.10;;
50769;SDS011;36740;48.698;11.472;2023-02-28T06:35:30;8.57;;;6.93;;
50769;SDS011;36740;48.698;11.472;2023-02-28T06:38:15;10.70;;;6.65;;
50769;SDS011;36740;48.698;11.472;2023-02-28T06:41:01;11.60;;;7.30;;
50769;SDS011;36740;48.698;11.472;2023-02-28T06:43:47;12.95;;;8.02;;
50769;SDS011;36740;48.698;11.472;2023-02-28T06:46:32;9.43;;;7.80;;
50769;SDS011;36740;48.698;11.472;2023-02-28T06:49:18;12.23;;;6.63;;
50769;SDS011;36740;48.698;11.472;2023-02-28T06:52:03;15.32;;;7.55;;
50769;SDS011;36740;48.698;11.472;2023-02-28T06:54:49;9.95;;;7.65;;
50769;SDS011;36740;48.698;11.472;2023-02-28T06:57:44;25.25;;;9.93;;
50769;SDS011;36740;48.698;11.472;2023-02-28T07:00:30;13.60;;;6.55;;
50769;SDS011;36740;48.698;11.472;2023-02-28T07:03:16;12.32;;;8.13;;
50769;SDS011;36740;48.698;11.472;2023-02-28T07:06:04;12.43;;;7.43;;
50769;SDS011;36740;48.698;11.472;2023-02-28T07:08:50;8.07;;;4.88;;
50769;SDS011;36740;48.698;11.472;2023-02-28T07:11:36;8.70;;;6.85;;
50769;SDS011;36740;48.698;11.472;2023-02-28T07:14:21;11.10;;;7.20;;
50769;SDS011;36740;48.698;11.472;2023-02-28T07:17:07;7.28;;;5.25;;
50769;SDS011;36740;48.698;11.472;2023-02-28T07:19:53;11.60;;;5.10;;
50769;SDS011;36740;48.698;11.472;2023-02-28T07:22:39;10.40;;;5.75;;
50769;SDS011;36740;48.698;11.472;2023-02-28T07:25:25;10.63;;;7.10;;
50769;SDS011;36740;48.698;11.472;2023-02-28T07:28:11;9.65;;;6.68;;
50769;SDS011;36740;48.698;11.472;2023-02-28T07:31:02;10.95;;;6.20;;
50769;SDS011;36740;48.698;11.472;2023-02-28T07:36:33;10.48;;;7.43;;
50769;SDS011;36740;48.698;11.472;2023-02-28T07:39:20;10.52;;;7.35;;
50769;SDS011;36740;48.698;11.472;2023-02-28T07:42:06;16.50;;;8.65;;
50769;SDS011;36740;48.698;11.472;2023-02-28T07:44:54;10.88;;;6.05;;
50769;SDS011;36740;48.698;11.472;2023-02-28T07:47:41;8.75;;;6.43;;
50769;SDS011;36740;48.698;11.472;2023-02-28T07:50:26;10.98;;;6.55;;
50769;SDS011;36740;48.698;11.472;2023-02-28T07:53:16;7.43;;;6.35;;
50769;SDS011;36740;48.698;11.472;2023-02-28T07:56:01;15.75;;;7.60;;
50769;SDS011;36740;48.698;11.472;2023-02-28T07:58:47;12.55;;;6.82;;
50769;SDS011;36740;48.698;11.472;2023-02-28T08:01:33;11.13;;;6.50;;
50769;SDS011;36740;48.698;11.472;2023-02-28T08:04:18;9.48;;;6.18;;
50769;SDS011;36740;48.698;11.472;2023-02-28T08:07:04;15.13;;;6.50;;
50769;SDS011;36740;48.698;11.472;2023-02-28T08:09:50;11.70;;;6.88;;
50769;SDS011;36740;48.698;11.472;2023-02-28T08:12:36;15.95;;;8.35;;
50769;SDS011;36740;48.698;11.472;2023-02-28T08:15:22;7.75;;;6.68;;
50769;SDS011;36740;48.698;11.472;2023-02-28T08:18:07;11.57;;;7.13;;
50769;SDS011;36740;48.698;11.472;2023-02-28T08:20:53;7.55;;;5.38;;
50769;SDS011;36740;48.698;11.472;2023-02-28T08:23:39;10.57;;;6.45;;
50769;SDS011;36740;48.698;11.472;2023-02-28T08:26:24;9.95;;;6.32;;
50769;SDS011;36740;48.698;11.472;2023-02-28T08:29:10;8.85;;;6.18;;
50769;SDS011;36740;48.698;11.472;2023-02-28T08:31:55;15.50;;;6.50;;
50769;SDS011;36740;48.698;11.472;2023-02-28T08:34:42;12.45;;;6.15;;
50769;SDS011;36740;48.698;11.472;2023-02-28T08:37:28;10.32;;;6.65;;
50769;SDS011;36740;48.698;11.472;2023-02-28T08:40:13;9.65;;;6.20;;
50769;SDS011;36740;48.698;11.472;2023-02-28T08:43:03;6.60;;;5.18;;
50769;SDS011;36740;48.698;11.472;2023-02-28T08:45:51;9.50;;;7.03;;
50769;SDS011;36740;48.698;11.472;2023-02-28T08:48:36;7.85;;;4.95;;
50769;SDS011;36740;48.698;11.472;2023-02-28T08:51:25;9.85;;;5.82;;
50769;SDS011;36740;48.698;11.472;2023-02-28T08:54:13;11.00;;;6.05;;
50769;SDS011;36740;48.698;11.472;2023-02-28T08:57:02;8.02;;;5.55;;
50769;SDS011;36740;48.698;11.472;2023-02-28T08:59:47;7.32;;;5.07;;
50769;SDS011;36740;48.698;11.472;2023-02-28T09:02:33;12.75;;;6.00;;
50769;SDS011;36740;48.698;11.472;2023-02-28T09:05:19;8.55;;;4.45;;
50769;SDS011;36740;48.698;11.472;2023-02-28T09:08:04;11.70;;;5.22;;
50769;SDS011;36740;48.698;11.472;2023-02-28T09:10:50;7.28;;;4.93;;
50769;SDS011;36740;48.698;11.472;2023-02-28T09:13:36;11.77;;;5.40;;
50769;SDS011;36740;48.698;11.472;2023-02-28T09:16:22;12.32;;;5.78;;
50769;SDS011;36740;48.698;11.472;2023-02-28T09:19:10;10.68;;;4.85;;
50769;SDS011;36740;48.698;11.472;2023-02-28T09:21:56;8.45;;;5.10;;
50769;SDS011;36740;48.698;11.472;2023-02-28T09:24:41;13.70;;;6.43;;
50769;SDS011;36740;48.698;11.472;2023-02-28T09:27:27;23.23;;;5.32;;
50769;SDS011;36740;48.698;11.472;2023-02-28T09:30:13;12.80;;;5.95;;
50769;SDS011;36740;48.698;11.472;2023-02-28T09:32:58;14.75;;;4.65;;
50769;SDS011;36740;48.698;11.472;2023-02-28T09:35:44;22.80;;;6.18;;
50769;SDS011;36740;48.698;11.472;2023-02-28T09:38:29;9.10;;;6.00;;
50769;SDS011;36740;48.698;11.472;2023-02-28T09:41:17;8.65;;;4.40;;
50769;SDS011;36740;48.698;11.472;2023-02-28T09:44:03;10.13;;;5.30;;
50769;SDS011;36740;48.698;11.472;2023-02-28T09:46:51;8.13;;;5.10;;
50769;SDS011;36740;48.698;11.472;2023-02-28T09:49:40;8.93;;;5.53;;
50769;SDS011;36740;48.698;11.472;2023-02-28T09:52:28;7.03;;;4.45;;
50769;SDS011;36740;48.698;11.472;2023-02-28T09:58:00;7.93;;;4.88;;
50769;SDS011;36740;48.698;11.472;2023-02-28T10:00:52;9.27;;;5.32;;
50769;SDS011;36740;48.698;11.472;2023-02-28T10:03:47;7.07;;;5.00;;
50769;SDS011;36740;48.698;11.472;2023-02-28T10:06:48;9.40;;;6.05;;
50769;SDS011;36740;48.698;11.472;2023-02-28T10:09:34;9.98;;;6.68;;
50769;SDS011;36740;48.698;11.472;2023-02-28T10:12:21;9.50;;;6.80;;
50769;SDS011;36740;48.698;11.472;2023-02-28T10:15:07;8.80;;;4.70;;
50769;SDS011;36740;48.698;11.472;2023-02-28T10:17:59;8.93;;;4.00;;
50769;SDS011;36740;48.698;11.472;2023-02-28T10:20:46;10.75;;;5.25;;
50769;SDS011;36740;48.698;11.472;2023-02-28T10:23:34;9.60;;;5.20;;
50769;SDS011;36740;48.698;11.472;2023-02-28T10:26:20;11.68;;;6.68;;
50769;SDS011;36740;48.698;11.472;2023-02-28T10:29:07;10.65;;;5.82;;
50769;SDS011;36740;48.698;11.472;2023-02-28T10:31:53;23.35;;;7.40;;
50769;SDS011;36740;48.698;11.472;2023-02-28T10:34:42;6.45;;;4.55;;
50769;SDS011;36740;48.698;11.472;2023-02-28T10:37:27;7.93;;;4.28;;
50769;SDS011;36740;48.698;11.472;2023-02-28T10:48:47;11.80;;;4.90;;
50769;SDS011;36740;48.698;11.472;2023-02-28T10:51:37;8.90;;;4.85;;
50769;SDS011;36740;48.698;11.472;2023-02-28T10:54:32;11.20;;;5.18;;
50769;SDS011;36740;48.698;11.472;2023-02-28T10:57:21;8.90;;;5.78;;
50769;SDS011;36740;48.698;11.472;2023-02-28T11:00:15;9.50;;;5.68;;
50769;SDS011;36740;48.698;11.472;2023-02-28T11:03:01;7.72;;;5.22;;
50769;SDS011;36740;48.698;11.472;2023-02-28T11:06:07;8.68;;;5.60;;
50769;SDS011;36740;48.698;11.472;2023-02-28T11:09:01;7.32;;;4.65;;
50769;SDS011;36740;48.698;11.472;2023-02-28T11:11:48;11.43;;;5.13;;
50769;SDS011;36740;48.698;11.472;2023-02-28T11:14:55;7.97;;;4.60;;
50769;SDS011;36740;48.698;11.472;2023-02-28T11:17:40;7.70;;;4.45;;
50769;SDS011;36740;48.698;11.472;2023-02-28T11:20:29;6.47;;;4.13;;
50769;SDS011;36740;48.698;11.472;2023-02-28T11:23:16;8.05;;;5.63;;
50769;SDS011;36740;48.698;11.472;2023-02-28T11:26:02;7.72;;;4.97;;
50769;SDS011;36740;48.698;11.472;2023-02-28T11:28:49;12.00;;;7.45;;
50769;SDS011;36740;48.698;11.472;2023-02-28T11:37:54;10.10;;;4.70;;
50769;SDS011;36740;48.698;11.472;2023-02-28T11:40:48;7.45;;;4.75;;
50769;SDS011;36740;48.698;11.472;2023-02-28T11:52:43;7.90;;;4.07;;
50769;SDS011;36740;48.698;11.472;2023-02-28T12:13:41;5.82;;;3.92;;
50769;SDS011;36740;48.698;11.472;2023-02-28T12:16:33;9.00;;;4.60;;
50769;SDS011;36740;48.698;11.472;2023-02-28T12:25:30;8.40;;;4.65;;
50769;SDS011;36740;48.698;11.472;2023-02-28T12:28:27;5.43;;;3.85;;
50769;SDS011;36740;48.698;11.472;2023-02-28T12:31:18;10.90;;;6.28;;
50769;SDS011;36740;48.698;11.472;2023-02-28T12:34:10;6.05;;;4.22;;
50769;SDS011;36740;48.698;11.472;2023-02-28T12:36:56;8.02;;;4.78;;
50769;SDS011;36740;48.698;11.472;2023-02-28T12:39:45;12.75;;;4.80;;
50769;SDS011;36740;48.698;11.472;2023-02-28T12:42:32;11.80;;;5.03;;
50769;SDS011;36740;48.698;11.472;2023-02-28T12:45:23;10.85;;;5.82;;
50769;SDS011;36740;48.698;11.472;2023-02-28T12:48:10;10.02;;;5.18;;
50769;SDS011;36740;48.698;11.472;2023-02-28T12:50:59;7.10;;;4.93;;
50769;SDS011;36740;48.698;11.472;2023-02-28T12:53:49;8.90;;;5.47;;
50769;SDS011;36740;48.698;11.472;2023-02-28T12:59:49;8.65;;;5.05;;
50769;SDS011;36740;48.698;11.472;2023-02-28T13:08:43;8.90;;;5.38;;
50769;SDS011;36740;48.698;11.472;2023-02-28T13:17:17;9.27;;;4.50;;
50769;SDS011;36740;48.698;11.472;2023-02-28T13:20:14;9.65;;;5.78;;
50769;SDS011;36740;48.698;11.472;2023-02-28T13:23:00;10.10;;;4.82;;
50769;SDS011;36740;48.698;11.472;2023-02-28T13:25:51;11.45;;;6.32;;
50769;SDS011;36740;48.698;11.472;2023-02-28T13:29:10;11.27;;;5.30;;
50769;SDS011;36740;48.698;11.472;2023-02-28T13:37:43;8.05;;;4.97;;
50769;SDS011;36740;48.698;11.472;2023-02-28T13:40:30;9.65;;;4.60;;
50769;SDS011;36740;48.698;11.472;2023-02-28T13:43:24;8.02;;;5.18;;
50769;SDS011;36740;48.698;11.472;2023-02-28T13:46:27;8.85;;;5.63;;
50769;SDS011;36740;48.698;11.472;2023-02-28T14:06:54;7.20;;;4.68;;
50769;SDS011;36740;48.698;11.472;2023-02-28T14:09:41;10.55;;;5.97;;
50769;SDS011;36740;48.698;11.472;2023-02-28T14:18:23;10.13;;;5.10;;
50769;SDS011;36740;48.698;11.472;2023-02-28T14:21:29;8.30;;;5.00;;
50769;SDS011;36740;48.698;11.472;2023-02-28T14:24:20;8.93;;;5.03;;
50769;SDS011;36740;48.698;11.472;2023-02-28T14:30:03;10.80;;;5.75;;
50769;SDS011;36740;48.698;11.472;2023-02-28T14:33:04;13.20;;;6.20;;
50769;SDS011;36740;48.698;11.472;2023-02-28T14:39:00;8.40;;;5.82;;
50769;SDS011;36740;48.698;11.472;2023-02-28T14:41:46;13.55;;;5.18;;
50769;SDS011;36740;48.698;11.472;2023-02-28T14:44:32;15.40;;;8.27;;
50769;SDS011;36740;48.698;11.472;2023-02-28T14:47:18;11.63;;;5.15;;
50769;SDS011;36740;48.698;11.472;2023-02-28T14:50:04;9.43;;;5.90;;
50769;SDS011;36740;48.698;11.472;2023-02-28T14:52:53;9.85;;;6.93;;
50769;SDS011;36740;48.698;11.472;2023-02-28T14:55:43;7.78;;;5.80;;
50769;SDS011;36740;48.698;11.472;2023-02-28T14:58:30;13.52;;;6.45;;
50769;SDS011;36740;48.698;11.472;2023-02-28T15:01:19;12.15;;;6.43;;
50769;SDS011;36740;48.698;11.472;2023-02-28T15:04:05;14.10;;;6.03;;
50769;SDS011;36740;48.698;11.472;2023-02-28T15:07:11;7.93;;;5.18;;
50769;SDS011;36740;48.698;11.472;2023-02-28T15:10:13;11.20;;;5.82;;
50769;SDS011;36740;48.698;11.472;2023-02-28T15:13:00;10.35;;;7.28;;
50769;SDS011;36740;48.698;11.472;2023-02-28T15:15:54;9.05;;;5.15;;
50769;SDS011;36740;48.698;11.472;2023-02-28T15:21:27;17.25;;;5.78;;
50769;SDS011;36740;48.698;11.472;2023-02-28T15:27:00;11.80;;;6.85;;
50769;SDS011;36740;48.698;11.472;2023-02-28T15:29:48;14.85;;;7.28;;
50769;SDS011;36740;48.698;11.472;2023-02-28T15:32:37;11.82;;;6.07;;
50769;SDS011;36740;48.698;11.472;2023-02-28T15:38:26;12.15;;;7.30;;
50769;SDS011;36740;48.698;11.472;2023-02-28T15:41:24;11.82;;;7.85;;
50769;SDS011;36740;48.698;11.472;2023-02-28T15:47:02;17.05;;;7.35;;
50769;SDS011;36740;48.698;11.472;2023-02-28T15:49:49;10.55;;;7.47;;
50769;SDS011;36740;48.698;11.472;2023-02-28T15:52:44;10.27;;;7.28;;
50769;SDS011;36740;48.698;11.472;2023-02-28T15:55:30;11.88;;;7.15;;
50769;SDS011;36740;48.698;11.472;2023-02-28T15:58:16;10.68;;;7.28;;
50769;SDS011;36740;48.698;11.472;2023-02-28T16:01:07;9.10;;;6.65;;
50769;SDS011;36740;48.698;11.472;2023-02-28T16:03:54;11.18;;;7.07;;
50769;SDS011;36740;48.698;11.472;2023-02-28T16:07:00;13.77;;;7.75;;
50769;SDS011;36740;48.698;11.472;2023-02-28T16:09:45;13.65;;;8.05;;
50769;SDS011;36740;48.698;11.472;2023-02-28T16:12:33;13.02;;;8.40;;
50769;SDS011;36740;48.698;11.472;2023-02-28T16:15:20;14.85;;;6.50;;
50769;SDS011;36740;48.698;11.472;2023-02-28T16:18:10;15.10;;;8.18;;
50769;SDS011;36740;48.698;11.472;2023-02-28T16:20:56;11.68;;;7.18;;
50769;SDS011;36740;48.698;11.472;2023-02-28T16:23:42;10.60;;;7.80;;
50769;SDS011;36740;48.698;11.472;2023-02-28T16:26:28;9.35;;;5.68;;
50769;SDS011;36740;48.698;11.472;2023-02-28T16:29:46;11.93;;;6.78;;
50769;SDS011;36740;48.698;11.472;2023-02-28T16:32:25;13.82;;;8.05;;
50769;SDS011;36740;48.698;11.472;2023-02-28T16:35:11;15.05;;;8.55;;
50769;SDS011;36740;48.698;11.472;2023-02-28T16:38:12;8.40;;;7.22;;
50769;SDS011;36740;48.698;11.472;2023-02-28T16:40:59;16.70;;;6.93;;
50769;SDS011;36740;48.698;11.472;2023-02-28T16:44:06;10.18;;;6.75;;
50769;SDS011;36740;48.698;11.472;2023-02-28T16:46:51;15.35;;;8.23;;
50769;SDS011;36740;48.698;11.472;2023-02-28T16:49:37;12.80;;;10.15;;
50769;SDS011;36740;48.698;11.472;2023-02-28T16:52:23;16.58;;;8.50;;
50769;SDS011;36740;48.698;11.472;2023-02-28T16:55:09;13.50;;;8.77;;
50769;SDS011;36740;48.698;11.472;2023-02-28T16:57:56;10.43;;;6.45;;
50769;SDS011;36740;48.698;11.472;2023-02-28T17:00:42;10.02;;;7.15;;
50769;SDS011;36740;48.698;11.472;2023-02-28T17:03:28;7.88;;;6.03;;
50769;SDS011;36740;48.698;11.472;2023-02-28T17:06:16;14.82;;;9.63;;
50769;SDS011;36740;48.698;11.472;2023-02-28T17:09:03;19.98;;;6.93;;
50769;SDS011;36740;48.698;11.472;2023-02-28T17:11:48;13.20;;;8.48;;
50769;SDS011;36740;48.698;11.472;2023-02-28T17:14:34;17.77;;;8.98;;
50769;SDS011;36740;48.698;11.472;2023-02-28T17:17:21;12.50;;;7.40;;
50769;SDS011;36740;48.698;11.472;2023-02-28T17:20:12;11.77;;;7.88;;
50769;SDS011;36740;48.698;11.472;2023-02-28T17:22:57;13.27;;;8.70;;
50769;SDS011;36740;48.698;11.472;2023-02-28T17:25:43;22.33;;;9.05;;
50769;SDS011;36740;48.698;11.472;2023-02-28T17:28:38;22.63;;;9.80;;
50769;SDS011;36740;48.698;11.472;2023-02-28T17:31:24;13.05;;;10.07;;
50769;SDS011;36740;48.698;11.472;2023-02-28T17:34:10;13.18;;;8.82;;
50769;SDS011;36740;48.698;11.472;2023-02-28T17:36:56;14.80;;;10.13;;
50769;SDS011;36740;48.698;11.472;2023-02-28T17:39:53;10.80;;;7.88;;
50769;SDS011;36740;48.698;11.472;2023-02-28T17:42:40;10.85;;;7.97;;
50769;SDS011;36740;48.698;11.472;2023-02-28T17:45:25;15.35;;;8.05;;
50769;SDS011;36740;48.698;11.472;2023-02-28T17:48:11;11.40;;;7.60;;
50769;SDS011;36740;48.698;11.472;2023-02-28T17:50:58;11.43;;;7.65;;
50769;SDS011;36740;48.698;11.472;2023-02-28T17:53:44;14.32;;;7.35;;
50769;SDS011;36740;48.698;11.472;2023-02-28T17:56:29;13.90;;;8.82;;
50769;SDS011;36740;48.698;11.472;2023-02-28T17:59:16;11.82;;;8.77;;
50769;SDS011;36740;48.698;11.472;2023-02-28T18:02:02;13.32;;;8.95;;
50769;SDS011;36740;48.698;11.472;2023-02-28T18:04:48;12.63;;;9.23;;
50769;SDS011;36740;48.698;11.472;2023-02-28T18:07:36;13.38;;;7.55;;
50769;SDS011;36740;48.698;11.472;2023-02-28T18:10:21;17.92;;;8.80;;
50769;SDS011;36740;48.698;11.472;2023-02-28T18:13:07;13.73;;;8.68;;
50769;SDS011;36740;48.698;11.472;2023-02-28T18:15:53;13.75;;;9.80;;
50769;SDS011;36740;48.698;11.472;2023-02-28T18:18:39;22.10;;;11.13;;
50769;SDS011;36740;48.698;11.472;2023-02-28T18:21:25;18.80;;;9.95;;
50769;SDS011;36740;48.698;11.472;2023-02-28T18:24:11;15.95;;;9.75;;
50769;SDS011;36740;48.698;11.472;2023-02-28T18:27:04;23.05;;;9.80;;
50769;SDS011;36740;48.698;11.472;2023-02-28T18:29:51;12.30;;;9.93;;
50769;SDS011;36740;48.698;11.472;2023-02-28T18:32:37;13.77;;;10.07;;
50769;SDS011;36740;48.698;11.472;2023-02-28T18:35:23;15.73;;;9.30;;
50769;SDS011;36740;48.698;11.472;2023-02-28T18:38:21;19.67;;;8.98;;
50769;SDS011;36740;48.698;11.472;2023-02-28T18:41:06;15.85;;;10.90;;
50769;SDS011;36740;48.698;11.472;2023-02-28T18:43:52;14.90;;;9.90;;
50769;SDS011;36740;48.698;11.472;2023-02-28T18:46:39;13.73;;;11.25;;
50769;SDS011;36740;48.698;11.472;2023-02-28T18:49:25;18.70;;;10.25;;
50769;SDS011;36740;48.698;11.472;2023-02-28T18:52:10;19.20;;;10.18;;
50769;SDS011;36740;48.698;11.472;2023-02-28T18:54:56;14.15;;;8.38;;
50769;SDS011;36740;48.698;11.472;2023-02-28T18:57:41;16.88;;;9.45;;
50769;SDS011;36740;48.698;11.472;2023-02-28T19:00:27;21.13;;;10.77;;
50769;SDS011;36740;48.698;11.472;2023-02-28T19:03:13;16.35;;;9.95;;
50769;SDS011;36740;48.698;11.472;2023-02-28T19:05:59;14.10;;;9.15;;
50769;SDS011;36740;48.698;11.472;2023-02-28T19:08:45;20.70;;;10.18;;
50769;SDS011;36740;48.698;11.472;2023-02-28T19:11:31;21.38;;;11.05;;